createdAt,value
2019-02-18T00:00:23.948Z,12.33
2019-02-18T00:02:52.357Z,12.27
2019-02-18T00:05:20.759Z,11.20
2019-02-18T00:07:49.175Z,11.60
2019-02-18T00:10:17.584Z,11.20
2019-02-18T00:12:45.977Z,12.60
2019-02-18T00:15:14.760Z,12.57
2019-02-18T00:17:43.180Z,12.90
2019-02-18T00:20:11.588Z,13.93
2019-02-18T00:22:40.000Z,12.43
2019-02-18T00:25:08.387Z,12.00
2019-02-18T00:27:36.799Z,14.17
2019-02-18T00:30:07.054Z,12.37
2019-02-18T00:32:35.471Z,11.70
2019-02-18T00:35:04.194Z,12.90
2019-02-18T00:37:32.615Z,11.80
2019-02-18T00:40:01.030Z,11.30
2019-02-18T00:42:29.502Z,13.10
2019-02-18T00:44:57.923Z,13.23
2019-02-18T00:47:26.335Z,13.10
2019-02-18T00:49:54.739Z,12.63
2019-02-18T00:52:23.159Z,13.33
2019-02-18T00:54:51.551Z,13.60
2019-02-18T00:57:19.953Z,11.70
2019-02-18T00:59:48.371Z,11.20
2019-02-18T01:02:16.802Z,11.70
2019-02-18T01:04:45.207Z,10.63
2019-02-18T01:07:13.693Z,11.70
2019-02-18T01:09:42.091Z,11.03
2019-02-18T01:12:10.499Z,12.43
2019-02-18T01:14:38.968Z,12.40
2019-02-18T01:17:07.387Z,12.40
2019-02-18T01:19:35.791Z,13.40
2019-02-18T01:22:04.203Z,13.30
2019-02-18T01:24:32.594Z,11.60
2019-02-18T01:27:01.011Z,12.13
2019-02-18T01:29:29.400Z,14.13
2019-02-18T01:31:57.812Z,13.40
2019-02-18T01:34:26.222Z,12.57
2019-02-18T01:36:54.636Z,12.70
2019-02-18T01:39:23.277Z,12.33
2019-02-18T01:41:51.673Z,11.53
2019-02-18T01:44:20.097Z,11.10
2019-02-18T01:46:48.499Z,10.30
2019-02-18T01:49:16.903Z,11.27
2019-02-18T01:51:45.307Z,10.90
2019-02-18T01:54:13.721Z,12.87
2019-02-18T01:56:42.124Z,10.37
2019-02-18T01:59:10.521Z,11.70
2019-02-18T02:01:38.927Z,12.40
2019-02-18T02:04:07.346Z,12.10
2019-02-18T02:06:35.743Z,12.57
2019-02-18T02:09:08.025Z,11.20
2019-02-18T02:11:36.421Z,16.80
2019-02-18T02:14:04.843Z,16.30
2019-02-18T02:16:33.250Z,16.53
2019-02-18T02:19:01.672Z,14.50
2019-02-18T02:21:30.074Z,14.50
2019-02-18T02:23:58.472Z,16.87
2019-02-18T02:26:26.881Z,17.13
2019-02-18T02:28:55.278Z,15.60
2019-02-18T02:31:23.690Z,17.93
2019-02-18T02:33:52.099Z,16.67
2019-02-18T02:36:20.520Z,15.50
2019-02-18T02:38:48.938Z,15.07
2019-02-18T02:41:17.352Z,14.83
2019-02-18T02:43:45.771Z,16.10
2019-02-18T02:46:14.178Z,13.23
2019-02-18T02:48:42.601Z,13.80
2019-02-18T02:51:10.995Z,14.63
2019-02-18T02:53:39.420Z,16.03
2019-02-18T02:56:07.807Z,16.63
2019-02-18T02:58:36.228Z,18.63
2019-02-18T03:01:04.695Z,16.50
2019-02-18T03:03:33.093Z,14.20
2019-02-18T03:06:01.492Z,14.43
2019-02-18T03:08:29.929Z,15.30
2019-02-18T03:10:58.336Z,15.67
2019-02-18T03:13:26.755Z,16.77
2019-02-18T03:15:55.157Z,14.90
2019-02-18T03:18:23.570Z,14.20
2019-02-18T03:20:52.001Z,14.10
2019-02-18T03:23:20.389Z,15.43
2019-02-18T03:25:49.634Z,14.83
2019-02-18T03:28:23.666Z,14.90
2019-02-18T03:31:01.510Z,15.50
2019-02-18T03:33:35.573Z,14.53
2019-02-18T03:36:03.973Z,12.93
2019-02-18T03:38:32.371Z,14.20
2019-02-18T03:41:03.406Z,14.60
2019-02-18T03:43:30.919Z,13.00
2019-02-18T03:45:59.350Z,14.10
2019-02-18T03:48:27.733Z,14.27
2019-02-18T03:50:56.139Z,15.47
2019-02-18T03:53:24.613Z,15.00
2019-02-18T03:55:53.078Z,13.63
2019-02-18T03:58:21.778Z,13.67
2019-02-18T04:00:50.615Z,13.13
2019-02-18T04:03:19.142Z,13.70
2019-02-18T04:05:47.582Z,14.50
2019-02-18T04:08:15.983Z,14.80
2019-02-18T04:10:44.400Z,13.97
2019-02-18T04:13:12.871Z,14.53
2019-02-18T04:15:41.354Z,11.80
2019-02-18T04:18:09.765Z,13.00
2019-02-18T04:20:38.157Z,12.43
2019-02-18T04:23:06.610Z,12.30
2019-02-18T04:25:35.027Z,12.90
2019-02-18T04:28:03.437Z,12.13
2019-02-18T04:30:31.852Z,10.97
2019-02-18T04:33:00.255Z,10.67
2019-02-18T04:35:28.659Z,12.10
2019-02-18T04:37:57.080Z,12.13
2019-02-18T04:40:25.484Z,12.67
2019-02-18T04:42:53.912Z,12.37
2019-02-18T04:45:22.308Z,12.77
2019-02-18T04:47:50.713Z,13.10
2019-02-18T04:50:19.109Z,13.30
2019-02-18T04:52:47.568Z,12.00
2019-02-18T04:55:15.959Z,14.37
2019-02-18T04:57:44.614Z,15.00
2019-02-18T05:00:13.015Z,12.47
2019-02-18T05:02:41.452Z,12.40
2019-02-18T05:05:10.461Z,13.20
2019-02-18T05:07:38.884Z,14.07
2019-02-18T05:10:12.324Z,13.30
2019-02-18T05:12:40.741Z,14.95
2019-02-18T05:15:09.583Z,15.30
2019-02-18T05:17:37.998Z,15.63
2019-02-18T05:20:07.748Z,14.98
2019-02-18T05:22:36.171Z,24.50
2019-02-18T05:25:09.279Z,31.20
2019-02-18T05:27:37.729Z,14.90
2019-02-18T05:30:09.124Z,13.17
2019-02-18T05:32:37.534Z,15.03
2019-02-18T05:35:07.290Z,16.15
2019-02-18T05:37:35.716Z,14.40
2019-02-18T05:40:05.764Z,14.10
2019-02-18T05:42:34.183Z,26.50
2019-02-18T05:45:02.772Z,17.63
2019-02-18T05:47:31.192Z,18.97
2019-02-18T05:49:59.601Z,16.73
2019-02-18T05:52:28.019Z,16.17
2019-02-18T05:54:56.454Z,15.85
2019-02-18T05:57:24.888Z,14.40
2019-02-18T05:59:53.281Z,14.33
2019-02-18T06:02:22.297Z,14.53
2019-02-18T06:04:51.025Z,15.70
2019-02-18T06:07:19.450Z,14.50
2019-02-18T06:09:47.856Z,14.90
2019-02-18T06:12:16.287Z,13.90
2019-02-18T06:14:44.710Z,13.10
2019-02-18T06:17:13.139Z,16.15
2019-02-18T06:19:41.552Z,14.17
2019-02-18T06:22:09.983Z,14.43
2019-02-18T06:24:38.399Z,13.83
2019-02-18T06:27:06.821Z,14.30
2019-02-18T06:29:35.236Z,14.58
2019-02-18T06:32:03.650Z,14.47
2019-02-18T06:34:32.056Z,14.33
2019-02-18T06:37:00.477Z,12.33
2019-02-18T06:39:40.215Z,14.73
2019-02-18T06:41:59.026Z,14.90
2019-02-18T06:44:29.095Z,14.07
2019-02-18T06:46:59.159Z,16.00
2019-02-18T06:49:27.585Z,14.87
2019-02-18T06:51:55.994Z,14.70
2019-02-18T06:54:24.406Z,12.30
2019-02-18T06:59:54.500Z,13.05
2019-02-18T07:02:30.561Z,13.97
2019-02-18T07:05:09.629Z,14.40
2019-02-18T07:07:45.684Z,16.03
2019-02-18T07:10:15.719Z,12.70
2019-02-18T07:12:45.907Z,25.90
2019-02-18T07:15:14.307Z,22.17
2019-02-18T07:17:42.728Z,20.57
2019-02-18T07:20:11.189Z,17.80
2019-02-18T07:22:39.674Z,18.50
2019-02-18T07:25:08.946Z,22.40
2019-02-18T07:27:37.347Z,21.90
2019-02-18T07:30:09.173Z,19.47
2019-02-18T07:32:37.576Z,18.73
2019-02-18T07:35:06.249Z,18.63
2019-02-18T07:37:34.721Z,17.20
2019-02-18T07:40:03.603Z,15.87
2019-02-18T07:42:32.019Z,16.23
2019-02-18T07:45:00.438Z,15.77
2019-02-18T07:47:28.843Z,16.20
2019-02-18T07:49:57.258Z,16.87
2019-02-18T07:52:25.678Z,17.70
2019-02-18T07:54:54.073Z,17.57
2019-02-18T07:57:22.476Z,17.57
2019-02-18T07:59:50.895Z,17.33
2019-02-18T08:02:19.368Z,17.23
2019-02-18T08:04:47.789Z,16.30
2019-02-18T08:07:16.204Z,15.83
2019-02-18T08:09:44.677Z,15.80
2019-02-18T08:12:13.089Z,14.93
2019-02-18T08:14:41.486Z,17.30
2019-02-18T08:17:09.884Z,16.33
2019-02-18T08:19:38.307Z,17.80
2019-02-18T08:22:06.712Z,17.90
2019-02-18T08:24:35.114Z,18.73
2019-02-18T08:27:03.519Z,18.00
2019-02-18T08:29:31.922Z,21.40
2019-02-18T08:32:00.319Z,29.60
2019-02-18T08:34:28.732Z,22.73
2019-02-18T08:36:57.137Z,19.93
2019-02-18T08:39:25.899Z,19.20
2019-02-18T08:41:54.315Z,27.57
2019-02-18T08:44:22.736Z,21.27
2019-02-18T08:46:51.135Z,19.33
2019-02-18T08:49:19.596Z,16.13
2019-02-18T08:51:48.049Z,14.07
2019-02-18T08:54:16.465Z,13.93
2019-02-18T08:56:44.868Z,12.23
2019-02-18T08:59:13.269Z,11.93
2019-02-18T09:01:41.665Z,12.10
2019-02-18T09:04:10.083Z,13.50
2019-02-18T09:06:38.488Z,13.17
2019-02-18T09:09:07.067Z,12.60
2019-02-18T09:11:36.310Z,12.80
2019-02-18T09:14:04.810Z,12.50
2019-02-18T09:16:33.193Z,12.50
2019-02-18T09:19:01.606Z,12.23
2019-02-18T09:21:31.785Z,12.47
2019-02-18T09:24:01.845Z,12.03
2019-02-18T09:26:30.264Z,12.63
2019-02-18T09:28:58.674Z,12.30
2019-02-18T09:31:28.544Z,12.20
2019-02-18T09:33:56.945Z,12.57
2019-02-18T09:36:25.368Z,11.90
2019-02-18T09:38:53.768Z,13.33
2019-02-18T09:41:22.171Z,11.50
2019-02-18T09:43:50.583Z,11.20
2019-02-18T09:46:18.989Z,11.77
2019-02-18T09:48:47.395Z,12.33
2019-02-18T09:51:15.800Z,11.83
2019-02-18T09:53:44.208Z,10.70
2019-02-18T09:56:12.607Z,12.50
2019-02-18T09:58:41.024Z,12.63
2019-02-18T10:01:09.419Z,14.47
2019-02-18T10:03:37.845Z,12.40
2019-02-18T10:06:06.237Z,16.10
2019-02-18T10:08:34.638Z,10.87
2019-02-18T10:11:03.053Z,11.23
2019-02-18T10:13:31.447Z,12.67
2019-02-18T10:15:59.859Z,14.00
2019-02-18T10:18:28.286Z,11.77
2019-02-18T10:20:56.692Z,11.73
2019-02-18T10:23:25.177Z,11.60
2019-02-18T10:25:53.603Z,11.00
2019-02-18T10:28:22.002Z,10.70
2019-02-18T10:30:50.418Z,10.87
2019-02-18T10:33:18.820Z,10.10
2019-02-18T10:35:47.217Z,9.97
2019-02-18T10:38:15.610Z,12.00
2019-02-18T10:40:44.100Z,10.40
2019-02-18T10:43:12.507Z,10.80
2019-02-18T10:45:40.956Z,11.50
2019-02-18T10:48:09.402Z,10.30
2019-02-18T10:50:37.816Z,12.10
2019-02-18T10:53:06.206Z,11.50
2019-02-18T10:55:34.638Z,13.10
2019-02-18T10:58:03.022Z,11.37
2019-02-18T11:00:31.429Z,9.90
2019-02-18T11:02:59.845Z,11.57
2019-02-18T11:05:28.263Z,12.63
2019-02-18T11:07:57.086Z,11.83
2019-02-18T11:10:25.572Z,10.57
2019-02-18T11:12:53.967Z,11.27
2019-02-18T11:15:22.409Z,15.50
2019-02-18T11:17:50.803Z,11.50
2019-02-18T11:20:19.232Z,10.97
2019-02-18T11:22:47.641Z,11.97
2019-02-18T11:25:16.126Z,11.93
2019-02-18T11:27:44.522Z,14.00
2019-02-18T11:30:17.095Z,11.87
2019-02-18T11:32:45.555Z,11.70
2019-02-18T11:35:14.043Z,11.07
2019-02-18T11:37:42.460Z,10.90
2019-02-18T11:40:13.588Z,10.47
2019-02-18T11:42:41.991Z,9.20
2019-02-18T11:45:12.852Z,11.63
2019-02-18T11:47:41.311Z,11.17
2019-02-18T11:50:11.672Z,12.40
2019-02-18T11:52:40.075Z,11.37
2019-02-18T11:55:12.520Z,11.83
2019-02-18T11:57:41.391Z,10.97
2019-02-18T12:00:12.886Z,9.23
2019-02-18T12:02:41.352Z,9.40
2019-02-18T12:05:11.100Z,9.07
2019-02-18T12:07:39.581Z,8.87
2019-02-18T12:10:12.617Z,8.57
2019-02-18T12:12:41.383Z,8.37
2019-02-18T12:15:14.357Z,8.50
2019-02-18T12:17:42.765Z,9.77
2019-02-18T12:20:13.393Z,11.07
2019-02-18T12:22:41.867Z,11.43
2019-02-18T12:25:11.118Z,10.70
2019-02-18T12:27:39.899Z,10.40
2019-02-18T12:30:11.622Z,11.30
2019-02-18T12:32:40.099Z,10.17
2019-02-18T12:35:08.766Z,10.87
2019-02-18T12:37:37.186Z,12.00
2019-02-18T12:40:08.436Z,12.17
2019-02-18T12:42:37.115Z,11.63
2019-02-18T12:45:08.474Z,11.10
2019-02-18T12:47:37.218Z,12.13
2019-02-18T12:50:07.339Z,10.90
2019-02-18T12:52:35.835Z,11.50
2019-02-18T12:55:05.717Z,10.87
2019-02-18T12:57:34.504Z,9.63
2019-02-18T13:00:03.347Z,10.93
2019-02-18T13:02:31.977Z,12.03
2019-02-18T13:05:00.466Z,10.63
2019-02-18T13:07:28.998Z,11.30
2019-02-18T13:09:57.513Z,12.00
2019-02-18T13:12:26.055Z,11.67
2019-02-18T13:14:54.536Z,11.00
2019-02-18T13:17:23.231Z,11.57
2019-02-18T13:19:51.646Z,11.40
2019-02-18T13:22:20.059Z,11.70
2019-02-18T13:24:48.521Z,10.93
2019-02-18T13:27:16.948Z,11.33
2019-02-18T13:29:45.339Z,11.53
2019-02-18T13:32:13.817Z,10.57
2019-02-18T13:34:42.608Z,10.93
2019-02-18T13:37:12.918Z,10.87
2019-02-18T13:39:41.319Z,11.30
2019-02-18T13:42:09.747Z,10.33
2019-02-18T13:44:38.147Z,10.90
2019-02-18T13:47:06.622Z,11.03
2019-02-18T13:49:35.473Z,10.23
2019-02-18T13:52:04.154Z,11.10
2019-02-18T13:54:32.550Z,11.23
2019-02-18T13:57:00.954Z,9.97
2019-02-18T13:59:29.376Z,11.37
2019-02-18T14:01:57.787Z,9.73
2019-02-18T14:04:26.195Z,10.30
2019-02-18T14:06:54.988Z,9.70
2019-02-18T14:09:23.391Z,10.27
2019-02-18T14:11:51.793Z,10.57
2019-02-18T14:14:20.200Z,10.23
2019-02-18T14:16:48.624Z,10.33
2019-02-18T14:19:17.016Z,9.50
2019-02-18T14:21:45.817Z,9.10
2019-02-18T14:24:14.205Z,9.73
2019-02-18T14:26:42.623Z,10.27
2019-02-18T14:29:11.009Z,8.93
2019-02-18T14:31:39.418Z,9.27
2019-02-18T14:34:07.836Z,10.90
2019-02-18T14:36:36.256Z,10.30
2019-02-18T14:39:08.538Z,9.20
2019-02-18T14:41:36.942Z,9.40
2019-02-18T14:44:05.414Z,8.63
2019-02-18T14:46:33.823Z,8.13
2019-02-18T14:49:02.223Z,9.50
2019-02-18T14:51:30.639Z,8.80
2019-02-18T14:53:59.315Z,8.10
2019-02-18T14:56:27.747Z,8.80
2019-02-18T14:58:56.149Z,8.10
2019-02-18T15:01:24.564Z,8.23
2019-02-18T15:03:53.020Z,7.83
2019-02-18T15:06:21.505Z,7.30
2019-02-18T15:08:50.278Z,6.00
2019-02-18T15:11:18.696Z,5.90
2019-02-18T15:13:47.105Z,6.40
2019-02-18T15:16:15.520Z,6.60
2019-02-18T15:18:43.901Z,6.07
2019-02-18T15:21:12.383Z,6.60
2019-02-18T15:23:40.769Z,6.77
2019-02-18T15:26:09.235Z,7.43
2019-02-18T15:28:37.665Z,6.83
2019-02-18T15:31:06.123Z,8.17
2019-02-18T15:33:34.521Z,7.10
2019-02-18T15:36:02.927Z,7.73
2019-02-18T15:38:31.342Z,9.10
2019-02-18T15:41:00.176Z,7.37
2019-02-18T15:43:28.672Z,7.27
2019-02-18T15:45:57.145Z,8.13
2019-02-18T15:48:25.569Z,7.37
2019-02-18T15:50:53.968Z,7.33
2019-02-18T15:53:22.375Z,7.03
2019-02-18T15:55:50.775Z,7.50
2019-02-18T15:58:19.193Z,7.10
2019-02-18T16:00:47.577Z,7.40
2019-02-18T16:03:15.978Z,7.20
2019-02-18T16:05:44.380Z,8.00
2019-02-18T16:08:12.801Z,6.80
2019-02-18T16:10:41.203Z,6.50
2019-02-18T16:13:09.801Z,6.60
2019-02-18T16:15:38.210Z,6.50
2019-02-18T16:18:06.621Z,6.43
2019-02-18T16:20:35.099Z,6.63
2019-02-18T16:23:03.526Z,7.40
2019-02-18T16:25:32.004Z,6.50
2019-02-18T16:28:00.414Z,6.73
2019-02-18T16:30:28.825Z,6.20
2019-02-18T16:32:57.240Z,6.90
2019-02-18T16:35:26.011Z,7.60
2019-02-18T16:37:54.678Z,8.23
2019-02-18T16:40:23.469Z,13.70
2019-02-18T16:42:59.109Z,11.17
2019-02-18T16:45:22.088Z,11.20
2019-02-18T16:47:50.504Z,15.67
2019-02-18T16:50:18.890Z,17.70
2019-02-18T16:52:47.307Z,17.80
2019-02-18T16:55:16.223Z,18.33
2019-02-18T16:57:44.791Z,20.60
2019-02-18T17:00:25.979Z,28.40
2019-02-18T17:02:54.541Z,38.00
2019-02-18T17:05:22.936Z,24.87
2019-02-18T17:07:52.136Z,21.50
2019-02-18T17:10:20.779Z,21.70
2019-02-18T17:12:49.660Z,13.00
2019-02-18T17:15:18.148Z,14.27
2019-02-18T17:17:46.630Z,14.37
2019-02-18T17:20:15.069Z,12.43
2019-02-18T17:22:43.489Z,13.60
2019-02-18T17:25:13.119Z,14.17
2019-02-18T17:27:41.727Z,11.13
2019-02-18T17:30:14.510Z,8.10
2019-02-18T17:32:43.069Z,6.87
2019-02-18T17:35:12.895Z,6.53
2019-02-18T17:37:41.619Z,6.53
2019-02-18T17:40:13.571Z,6.50
2019-02-18T17:42:42.330Z,5.83
2019-02-18T17:45:13.364Z,6.47
2019-02-18T17:47:41.883Z,6.10
2019-02-18T17:50:17.367Z,5.63
2019-02-18T17:52:46.455Z,5.17
2019-02-18T17:55:16.607Z,5.33
2019-02-18T17:57:45.101Z,5.43
2019-02-18T18:00:21.523Z,6.03
2019-02-18T18:02:50.098Z,5.23
2019-02-18T18:05:18.588Z,5.93
2019-02-18T18:07:47.063Z,6.53
2019-02-18T18:10:15.980Z,6.07
2019-02-18T18:12:44.391Z,10.77
2019-02-18T18:15:14.925Z,7.00
2019-02-18T18:17:43.341Z,5.57
2019-02-18T18:20:12.951Z,6.60
2019-02-18T18:22:41.441Z,5.63
2019-02-18T18:25:12.030Z,6.37
2019-02-18T18:27:40.419Z,7.93
2019-02-18T18:30:11.359Z,6.53
2019-02-18T18:32:39.798Z,6.70
2019-02-18T18:35:10.819Z,9.60
2019-02-18T18:37:39.338Z,7.10
2019-02-18T18:40:15.086Z,6.70
2019-02-18T18:42:43.531Z,6.83
2019-02-18T18:45:15.749Z,7.90
2019-02-18T18:47:44.281Z,18.77
2019-02-18T18:50:17.583Z,15.83
2019-02-18T18:52:46.165Z,11.00
2019-02-18T18:55:14.653Z,8.50
2019-02-18T18:57:43.043Z,7.63
2019-02-18T19:00:18.803Z,8.23
2019-02-18T19:02:47.209Z,11.10
2019-02-18T19:05:15.622Z,12.37
2019-02-18T19:07:44.028Z,10.07
2019-02-18T19:10:12.437Z,9.73
2019-02-18T19:12:40.822Z,10.27
2019-02-18T19:15:11.943Z,9.17
2019-02-18T19:17:40.337Z,9.20
2019-02-18T19:20:11.554Z,10.83
2019-02-18T19:22:40.072Z,8.33
2019-02-18T19:25:12.690Z,8.90
2019-02-18T19:27:41.240Z,8.13
2019-02-18T19:30:21.739Z,8.33
2019-02-18T19:32:50.520Z,9.90
2019-02-18T19:35:18.933Z,9.00
2019-02-18T19:37:47.319Z,9.30
2019-02-18T19:40:15.738Z,8.20
2019-02-18T19:42:44.144Z,9.00
2019-02-18T19:45:23.635Z,8.50
2019-02-18T19:47:52.070Z,8.70
2019-02-18T19:50:20.496Z,9.33
2019-02-18T19:52:48.897Z,8.30
2019-02-18T19:55:17.295Z,8.07
2019-02-18T19:57:45.689Z,10.23
2019-02-18T20:00:19.185Z,8.70
2019-02-18T20:02:47.943Z,9.73
2019-02-18T20:05:16.415Z,10.53
2019-02-18T20:07:44.838Z,11.43
2019-02-18T20:10:13.481Z,9.83
2019-02-18T20:12:41.891Z,11.70
2019-02-18T20:15:14.848Z,10.13
2019-02-18T20:17:43.301Z,9.60
2019-02-18T20:20:16.323Z,10.07
2019-02-18T20:22:44.727Z,10.60
2019-02-18T20:25:13.275Z,10.90
2019-02-18T20:27:41.819Z,10.20
2019-02-18T20:30:14.414Z,11.07
2019-02-18T20:32:42.830Z,9.67
2019-02-18T20:35:11.707Z,10.90
2019-02-18T20:37:40.191Z,12.63
2019-02-18T20:40:09.963Z,12.13
2019-02-18T20:42:38.805Z,11.50
2019-02-18T20:45:10.167Z,11.10
2019-02-18T20:47:38.571Z,11.23
2019-02-18T20:50:09.627Z,11.00
2019-02-18T20:52:38.031Z,11.13
2019-02-18T20:55:09.056Z,11.67
2019-02-18T20:57:37.631Z,10.60
2019-02-18T21:00:10.729Z,10.77
2019-02-18T21:02:39.134Z,12.83
2019-02-18T21:05:07.968Z,12.40
2019-02-18T21:07:36.385Z,11.17
2019-02-18T21:10:07.697Z,12.90
2019-02-18T21:12:36.116Z,13.90
2019-02-18T21:15:05.060Z,12.73
2019-02-18T21:17:33.728Z,11.70
2019-02-18T21:20:02.130Z,12.10
2019-02-18T21:22:30.526Z,12.73
2019-02-18T21:24:58.943Z,12.50
2019-02-18T21:27:27.348Z,12.13
2019-02-18T21:29:55.759Z,12.77
2019-02-18T21:32:24.161Z,13.00
2019-02-18T21:34:52.554Z,14.20
2019-02-18T21:37:20.965Z,13.20
2019-02-18T21:39:49.354Z,13.40
2019-02-18T21:42:18.506Z,13.80
2019-02-18T21:44:46.915Z,13.40
2019-02-18T21:47:15.337Z,13.67
2019-02-18T21:49:43.725Z,13.57
2019-02-18T21:52:12.136Z,12.73
2019-02-18T21:54:40.521Z,13.90
2019-02-18T21:57:08.925Z,14.07
2019-02-18T21:59:37.335Z,12.17
2019-02-18T22:02:05.805Z,13.27
2019-02-18T22:04:34.211Z,15.30
2019-02-18T22:07:02.627Z,15.00
2019-02-18T22:09:31.031Z,14.00
2019-02-18T22:11:59.451Z,14.20
2019-02-18T22:14:33.423Z,14.07
2019-02-18T22:16:58.456Z,12.80
2019-02-18T22:19:26.865Z,13.20
2019-02-18T22:21:55.274Z,13.00
2019-02-18T22:24:23.677Z,13.83
2019-02-18T22:26:52.077Z,13.73
2019-02-18T22:29:20.474Z,14.20
2019-02-18T22:31:49.269Z,13.73
2019-02-18T22:34:17.671Z,12.67
2019-02-18T22:36:46.096Z,13.53
2019-02-18T22:39:14.491Z,13.10
2019-02-18T22:41:42.900Z,15.77
2019-02-18T22:44:11.295Z,17.57
2019-02-18T22:46:39.709Z,19.23
2019-02-18T22:49:08.387Z,22.33
2019-02-18T22:51:36.802Z,19.03
2019-02-18T22:54:05.210Z,20.30
2019-02-18T22:56:33.624Z,27.60
2019-02-18T22:59:02.024Z,21.13
2019-02-18T23:01:30.434Z,19.47
2019-02-18T23:03:58.834Z,22.37
2019-02-18T23:06:27.253Z,22.60
2019-02-18T23:08:55.665Z,24.27
2019-02-18T23:11:24.092Z,24.20
2019-02-18T23:13:52.483Z,25.23
2019-02-18T23:16:20.915Z,29.30
2019-02-18T23:18:49.465Z,26.70
2019-02-18T23:21:17.883Z,26.73
2019-02-18T23:23:46.297Z,28.00
2019-02-18T23:26:14.702Z,33.10
2019-02-18T23:28:43.176Z,30.07
2019-02-18T23:31:11.596Z,24.83
2019-02-18T23:33:40.003Z,23.43
2019-02-18T23:36:08.427Z,26.60
2019-02-18T23:38:36.814Z,24.50
2019-02-18T23:41:05.217Z,24.07
2019-02-18T23:43:33.626Z,24.20
2019-02-18T23:46:02.035Z,32.87
2019-02-18T23:48:30.449Z,21.57
2019-02-18T23:50:58.864Z,20.93
2019-02-18T23:53:27.330Z,24.77
2019-02-18T23:55:55.749Z,23.87
2019-02-18T23:58:24.167Z,20.77
